PDT,Max TemperatureF,Mean TemperatureF,Min TemperatureF,Max Dew PointF,MeanDew PointF,Min DewpointF,Max Humidity, Mean Humidity, Min Humidity, Max Sea Level PressureIn, Mean Sea Level PressureIn, Min Sea Level PressureIn, Max VisibilityMiles, Mean VisibilityMiles, Min VisibilityMiles, Max Wind SpeedMPH, Mean Wind SpeedMPH, Max Gust SpeedMPH,PrecipitationIn, CloudCover, Events, WindDirDegrees
2013-9-1,91,73,55,48,45,38,58,33,18,29.91,29.85,29.78,10,10,10,15,8,22,0.00,1,Rain,87
2013-9-2,80,67,56,59,55,44,79,61,42,29.94,29.89,29.79,10,10,10,12,5,,0.02,5,Rain,71
2013-9-3,84,72,60,58,56,54,86,62,35,30.01,29.96,29.91,10,10,10,13,8,20,0.00,3,,63
2013-9-4,86,72,59,61,56,53,88,54,34,30.04,30.01,29.94,10,10,9,14,6,,0.01,3,Rain-Thunderstorm,76
2013-9-5,75,68,62,64,61,55,100,83,66,30.08,29.98,29.88,10,8,2,26,13,30,0.91,5,Rain-Thunderstorm,333
2013-9-6,68,60,54,63,56,50,100,88,55,30.13,30.06,29.95,10,9,4,17,10,23,0.03,8,Rain,171
2013-9-7,68,60,50,56,53,50,100,90,55,30.14,30.11,30.06,10,10,10,13,4,,0.03,5,Rain,142
2013-9-8,73,60,48,58,52,48,100,93,47,30.11,30.07,29.99,10,4,0,13,5,17,0.00,5,Fog-Rain,289
2013-9-9,80,66,52,56,52,49,89,61,36,30.04,29.99,29.96,10,10,8,7,4,,0.00,0,,160
2013-9-10,83,70,56,56,52,48,90,56,29,30.06,30.01,29.98,10,10,10,10,5,,0.00,0,,24
2013-9-11,87,72,58,54,51,49,75,50,27,30.11,30.05,30.01,10,10,10,15,8,,0.00,0,,14
2013-9-12,86,74,62,52,50,48,63,45,27,30.05,29.99,29.90,10,10,10,12,5,,0.00,0,,357
2013-9-13,89,72,55,54,50,45,82,48,22,29.90,29.86,29.79,10,10,10,7,3,,0.00,0,,76
2013-9-14,87,73,59,54,50,45,77,46,27,29.94,29.89,29.83,10,10,10,13,7,17,0.00,0,,33
2013-9-15,86,73,60,59,52,45,94,53,29,29.88,29.76,29.68,10,6,0,44,13,54,0.00,4,Rain-Thunderstorm,346
2013-9-16,70,62,53,57,54,48,100,84,52,29.92,29.87,29.78,10,10,9,15,9,,0.00,6,,183
2013-9-17,68,56,46,54,50,44,100,86,46,29.85,29.77,29.71,10,7,0,29,8,36,0.48,4,Rain,203
2013-9-18,65,55,46,52,45,39,100,72,40,30.09,29.92,29.77,10,10,10,18,10,22,0.01,5,Rain,209
2013-9-19,70,56,41,45,40,34,90,65,26,30.14,30.07,29.95,10,10,10,13,7,20,0.00,0,,77
2013-9-20,77,60,43,46,43,41,89,54,29,29.94,29.72,29.55,10,10,10,17,11,20,0.00,0,Rain,25
2013-9-21,65,57,48,49,44,40,88,67,46,29.72,29.67,29.56,10,10,8,18,8,,0.00,4,Rain,170
2013-9-22,61,54,47,49,47,40,95,86,48,29.74,29.71,29.66,10,10,7,22,13,32,0.09,7,Rain,188
2013-9-23,58,51,44,49,45,42,100,85,57,29.96,29.86,29.74,10,10,10,18,14,25,0.00,6,,189
2013-9-24,59,52,45,48,45,36,100,86,46,29.92,29.85,29.78,10,9,2,13,7,20,0.06,7,Rain,187
2013-9-25,54,45,37,45,41,36,100,93,63,29.91,29.80,29.78,10,6,1,15,3,20,0.01,5,Rain,30
2013-9-26,61,49,38,43,37,29,100,71,30,30.06,29.98,29.88,10,10,4,12,6,,0.00,6,,341
2013-9-27,51,45,40,45,40,36,100,79,57,30.04,29.99,29.92,10,10,10,21,10,25,0.00,7,Rain,187
2013-9-28,56,50,46,54,50,44,100,93,82,29.92,29.68,29.46,10,9,2,23,14,34,0.67,8,Rain,161
2013-9-29,52,48,43,52,44,41,94,86,70,29.68,29.56,29.42,10,10,5,29,21,40,0.22,7,Rain,176
2013-9-30,56,48,41,48,42,36,100,81,58,29.91,29.62,29.40,10,10,7,29,19,39,0.12,4,Rain,183